createdAt,value
2019-01-18T05:00:54.837Z,6.70
2019-01-18T05:01:54.705Z,5.30
2019-01-18T05:03:47.359Z,4.80
2019-01-18T05:04:47.241Z,6.30
2019-01-18T05:06:39.969Z,7.30
2019-01-18T05:07:39.792Z,5.30
2019-01-18T05:09:32.466Z,7.00
2019-01-18T05:10:32.334Z,6.40
2019-01-18T05:12:25.018Z,5.60
2019-01-18T05:13:24.882Z,4.90
2019-01-18T05:15:17.559Z,4.80
2019-01-18T05:16:17.418Z,4.90
2019-01-18T05:18:10.101Z,3.40
2019-01-18T05:19:09.987Z,7.10
2019-01-18T05:21:02.659Z,6.10
2019-01-18T05:22:02.533Z,2.90
2019-01-18T05:23:55.195Z,6.70
2019-01-18T05:24:55.082Z,5.50
2019-01-18T05:26:47.755Z,5.70
2019-01-18T05:27:47.618Z,7.30
2019-01-18T05:29:40.317Z,6.30
2019-01-18T05:30:40.169Z,4.80
2019-01-18T05:32:32.832Z,5.70
2019-01-18T05:33:32.712Z,4.50
2019-01-18T05:35:25.392Z,7.40
2019-01-18T05:36:25.261Z,4.80
2019-01-18T05:38:17.950Z,4.40
2019-01-18T05:39:17.811Z,4.40
2019-01-18T05:41:10.495Z,5.70
2019-01-18T05:42:10.354Z,4.20
2019-01-18T05:44:03.024Z,5.60
2019-01-18T05:45:02.901Z,5.10
2019-01-18T05:46:55.576Z,7.60
2019-01-18T05:47:55.743Z,6.40
2019-01-18T05:49:48.553Z,4.90
2019-01-18T05:50:48.408Z,4.60
2019-01-18T05:52:41.834Z,8.20
2019-01-18T05:53:40.896Z,6.70
2019-01-18T05:55:33.693Z,6.00
2019-01-18T05:56:33.357Z,4.90
2019-01-18T05:58:26.182Z,6.60
2019-01-18T05:59:26.020Z,6.50
2019-01-18T06:01:18.671Z,7.30
2019-01-18T06:02:18.546Z,6.10
2019-01-18T06:04:11.343Z,6.60
2019-01-18T06:05:11.106Z,5.10
2019-01-18T06:07:03.746Z,5.50
2019-01-18T06:08:03.628Z,6.30
2019-01-18T06:09:56.323Z,5.60
2019-01-18T06:10:56.187Z,5.10
2019-01-18T06:12:48.869Z,6.40
2019-01-18T06:13:48.750Z,8.20
2019-01-18T06:15:41.451Z,5.50
2019-01-18T06:16:41.276Z,6.30
2019-01-18T06:18:34.003Z,6.60
2019-01-18T06:19:33.891Z,5.10
2019-01-18T06:21:26.658Z,5.70
2019-01-18T06:22:26.451Z,6.00
2019-01-18T06:24:19.101Z,6.00
2019-01-18T06:25:18.985Z,9.50
2019-01-18T06:27:11.637Z,4.40
2019-01-18T06:28:11.512Z,7.20
2019-01-18T06:30:04.284Z,8.20
2019-01-18T06:31:04.103Z,4.50
2019-01-18T06:32:56.775Z,7.20
2019-01-18T06:33:56.632Z,6.70
2019-01-18T06:35:49.358Z,6.50
2019-01-18T06:36:49.216Z,6.40
2019-01-18T06:38:41.897Z,5.70
2019-01-18T06:39:41.748Z,6.70
2019-01-18T06:41:34.490Z,6.10
2019-01-18T06:42:34.286Z,6.20
2019-01-18T06:44:26.970Z,6.50
2019-01-18T06:45:26.886Z,3.70
2019-01-18T06:47:19.529Z,6.50
2019-01-18T06:48:19.433Z,6.90
2019-01-18T06:50:12.174Z,6.30
2019-01-18T06:51:12.024Z,7.30
2019-01-18T06:53:04.735Z,6.00
2019-01-18T06:54:04.616Z,7.50
2019-01-18T06:55:57.301Z,6.10
2019-01-18T06:56:57.172Z,5.50
2019-01-18T06:58:49.898Z,6.80
2019-01-18T06:59:49.734Z,7.80
2019-01-18T07:01:42.397Z,5.80
2019-01-18T07:02:42.293Z,6.40
2019-01-18T07:04:40.755Z,5.70
2019-01-18T07:05:34.809Z,6.90
2019-01-18T07:07:27.539Z,7.60
2019-01-18T07:08:27.391Z,4.90
2019-01-18T07:10:20.874Z,5.20
2019-01-18T07:11:19.974Z,7.90
2019-01-18T07:13:12.656Z,8.10
2019-01-18T07:14:12.528Z,11.20
2019-01-18T07:16:05.180Z,5.50
2019-01-18T07:17:05.069Z,7.70
2019-01-18T07:18:58.818Z,6.40
2019-01-18T07:19:58.684Z,8.30
2019-01-18T07:21:51.459Z,6.30
2019-01-18T07:22:51.315Z,6.90
2019-01-18T07:24:44.036Z,5.50
2019-01-18T07:25:43.840Z,5.70
2019-01-18T07:27:36.529Z,6.30
2019-01-18T07:28:36.390Z,5.60
2019-01-18T07:30:29.051Z,6.20
2019-01-18T07:31:28.933Z,5.40
2019-01-18T07:33:21.612Z,6.50
2019-01-18T07:34:21.483Z,8.00
2019-01-18T07:36:14.142Z,4.90
2019-01-18T07:37:14.026Z,6.30
2019-01-18T07:39:06.713Z,6.40
2019-01-18T07:40:06.627Z,6.30
2019-01-18T07:41:59.238Z,5.00
2019-01-18T07:42:59.103Z,5.50
2019-01-18T07:44:51.787Z,7.40
2019-01-18T07:45:51.697Z,5.30
2019-01-18T07:47:44.331Z,5.60
2019-01-18T07:48:44.204Z,5.20
2019-01-18T07:50:36.863Z,6.20
2019-01-18T07:51:36.749Z,5.30
2019-01-18T07:53:29.935Z,6.50
2019-01-18T07:54:29.825Z,6.80
2019-01-18T07:56:22.478Z,7.10
2019-01-18T07:57:22.341Z,6.00
2019-01-18T07:59:15.004Z,8.50
2019-01-18T08:00:14.886Z,7.20
2019-01-18T08:02:07.558Z,8.00
2019-01-18T08:03:07.428Z,7.90
2019-01-18T08:05:00.088Z,5.90
2019-01-18T08:05:59.999Z,8.00
2019-01-18T08:07:52.645Z,6.40
2019-01-18T08:08:52.517Z,6.80
2019-01-18T08:10:45.173Z,7.30
2019-01-18T08:11:45.055Z,7.90
2019-01-18T08:13:37.725Z,6.00
2019-01-18T08:14:37.594Z,7.80
2019-01-18T08:16:30.266Z,8.00
2019-01-18T08:17:30.133Z,7.50
2019-01-18T08:19:22.791Z,6.80
2019-01-18T08:20:22.680Z,5.30
2019-01-18T08:22:15.357Z,8.00
2019-01-18T08:23:15.222Z,6.70
2019-01-18T08:25:07.927Z,5.00
2019-01-18T08:26:07.793Z,6.50
2019-01-18T08:28:00.472Z,7.90
2019-01-18T08:29:00.337Z,5.40
2019-01-18T08:30:53.029Z,5.20
2019-01-18T08:31:52.914Z,4.50
2019-01-18T08:33:45.609Z,6.00
2019-01-18T08:34:45.520Z,7.40
2019-01-18T08:36:38.157Z,5.60
2019-01-18T08:37:38.025Z,7.50
2019-01-18T08:39:30.649Z,6.20
2019-01-18T08:40:30.543Z,5.60
2019-01-18T08:42:23.215Z,5.40
2019-01-18T08:43:23.120Z,6.00
2019-01-18T08:45:15.790Z,7.70
2019-01-18T08:46:15.647Z,7.40
2019-01-18T08:48:08.337Z,5.60
2019-01-18T08:49:08.251Z,8.10
2019-01-18T08:51:00.881Z,4.00
2019-01-18T08:52:00.763Z,8.00
2019-01-18T08:53:53.442Z,5.90
2019-01-18T08:54:53.331Z,3.90
2019-01-18T08:56:45.972Z,7.10
2019-01-18T08:57:45.846Z,6.70
2019-01-18T08:59:38.520Z,5.70
2019-01-18T09:00:38.413Z,4.50
2019-01-18T09:02:31.076Z,7.60
2019-01-18T09:03:30.979Z,7.20
2019-01-18T09:05:23.611Z,5.50
2019-01-18T09:06:23.514Z,6.50
2019-01-18T09:08:16.145Z,6.30
2019-01-18T09:09:16.025Z,7.80
2019-01-18T09:11:08.708Z,7.30
2019-01-18T09:12:08.571Z,6.70
2019-01-18T09:14:01.298Z,4.00
2019-01-18T09:15:01.176Z,7.00
2019-01-18T09:16:53.845Z,5.80
2019-01-18T09:17:53.704Z,5.50
2019-01-18T09:19:46.376Z,7.30
2019-01-18T09:20:46.239Z,9.30
2019-01-18T09:22:39.027Z,5.50
2019-01-18T09:23:39.437Z,6.50
2019-01-18T09:25:31.548Z,5.50
2019-01-18T09:26:31.416Z,7.00
2019-01-18T09:28:24.090Z,6.00
2019-01-18T09:29:23.964Z,5.60
2019-01-18T09:31:16.620Z,5.70
2019-01-18T09:32:16.508Z,6.60
2019-01-18T09:34:09.186Z,4.60
2019-01-18T09:35:09.051Z,6.90
2019-01-18T09:37:01.701Z,5.70
2019-01-18T09:38:01.587Z,5.00
2019-01-18T09:39:54.261Z,7.10
2019-01-18T09:40:54.134Z,6.20
2019-01-18T09:42:46.797Z,6.50
2019-01-18T09:43:46.674Z,6.00
2019-01-18T09:45:39.418Z,6.40
2019-01-18T09:46:39.307Z,6.10
2019-01-18T09:48:31.981Z,5.70
2019-01-18T09:49:31.855Z,5.40
2019-01-18T09:51:24.520Z,6.60
2019-01-18T09:52:24.437Z,6.20
2019-01-18T09:54:17.074Z,4.40
2019-01-18T09:55:16.942Z,3.10
2019-01-18T09:57:09.621Z,5.60
2019-01-18T09:58:09.492Z,4.30
2019-01-18T10:00:02.156Z,4.50
2019-01-18T10:01:02.917Z,8.90
2019-01-18T10:02:54.714Z,7.10
2019-01-18T10:03:54.574Z,4.30
2019-01-18T10:05:47.246Z,6.20
2019-01-18T10:06:47.128Z,6.70
2019-01-18T10:08:39.822Z,5.50
2019-01-18T10:09:39.687Z,5.80
2019-01-18T10:11:32.364Z,6.50
2019-01-18T10:12:32.228Z,6.20
2019-01-18T10:14:24.893Z,5.90
2019-01-18T10:15:24.771Z,6.40
2019-01-18T10:17:17.457Z,5.40
2019-01-18T10:18:17.311Z,5.90
2019-01-18T10:20:09.970Z,4.10
2019-01-18T10:21:09.855Z,4.80
2019-01-18T10:23:02.531Z,5.50
2019-01-18T10:24:02.400Z,3.60
2019-01-18T10:25:55.076Z,6.10
2019-01-18T10:26:54.940Z,5.10
2019-01-18T10:28:47.606Z,3.80
2019-01-18T10:29:47.494Z,7.20
2019-01-18T10:31:40.174Z,7.50
2019-01-18T10:32:40.040Z,4.50
2019-01-18T10:34:32.695Z,6.00
2019-01-18T10:35:32.583Z,3.70
2019-01-18T10:37:25.257Z,6.90
2019-01-18T10:38:25.129Z,4.50
2019-01-18T10:40:17.808Z,4.60
2019-01-18T10:41:17.670Z,5.00
2019-01-18T10:43:10.332Z,3.80
2019-01-18T10:44:10.217Z,5.40
2019-01-18T10:46:02.900Z,4.60
2019-01-18T10:47:02.766Z,4.80
2019-01-18T10:48:55.428Z,5.10
2019-01-18T10:49:55.307Z,4.40
2019-01-18T10:51:47.983Z,5.10
2019-01-18T10:52:47.853Z,6.60
2019-01-18T10:54:40.532Z,5.70
2019-01-18T10:55:40.398Z,5.10
2019-01-18T10:57:33.063Z,5.80
2019-01-18T10:58:32.947Z,3.20
2019-01-18T11:00:25.627Z,5.30
2019-01-18T11:01:25.511Z,5.80
2019-01-18T11:03:18.154Z,4.90
2019-01-18T11:04:18.037Z,8.10
2019-01-18T11:06:10.716Z,6.80
2019-01-18T11:07:10.581Z,7.40
2019-01-18T11:09:03.266Z,6.50
2019-01-18T11:10:03.129Z,6.70
2019-01-18T11:11:55.779Z,6.40
2019-01-18T11:12:55.668Z,8.00
2019-01-18T11:14:48.344Z,5.20
2019-01-18T11:15:48.211Z,6.10
2019-01-18T11:17:41.418Z,7.90
2019-01-18T11:18:41.302Z,6.40
2019-01-18T11:20:33.978Z,7.90
2019-01-18T11:21:33.849Z,8.60
2019-01-18T11:23:26.720Z,7.30
2019-01-18T11:24:26.597Z,6.60
2019-01-18T11:26:19.256Z,8.00
2019-01-18T11:27:19.138Z,8.70
2019-01-18T11:29:11.812Z,6.90
2019-01-18T11:30:11.692Z,8.00
2019-01-18T11:32:04.363Z,8.70
2019-01-18T11:33:04.240Z,7.60
2019-01-18T11:34:56.910Z,7.90
2019-01-18T11:35:56.780Z,9.50
2019-01-18T11:37:49.454Z,9.50
2019-01-18T11:38:49.331Z,10.30
2019-01-18T11:40:42.050Z,6.70
2019-01-18T11:41:41.903Z,8.90
2019-01-18T11:43:34.616Z,8.50
2019-01-18T11:44:34.489Z,10.10
2019-01-18T11:46:27.651Z,10.40
2019-01-18T11:47:28.393Z,7.80
2019-01-18T11:49:20.211Z,7.90
2019-01-18T11:50:20.077Z,9.10
2019-01-18T11:52:12.841Z,9.60
2019-01-18T11:53:12.622Z,7.80
2019-01-18T11:55:05.387Z,7.70
2019-01-18T11:56:05.241Z,7.60
2019-01-18T11:57:57.967Z,9.10
2019-01-18T11:58:57.831Z,7.30
2019-01-18T12:00:50.530Z,9.10
2019-01-18T12:01:50.391Z,8.40
2019-01-18T12:03:43.070Z,7.40
2019-01-18T12:04:42.934Z,9.70
2019-01-18T12:06:35.599Z,6.80
2019-01-18T12:07:35.482Z,7.80
2019-01-18T12:09:28.159Z,7.90
2019-01-18T12:10:28.032Z,8.40
2019-01-18T12:12:20.708Z,9.50
2019-01-18T12:13:20.607Z,8.30
2019-01-18T12:15:13.230Z,7.90
2019-01-18T12:16:13.120Z,8.30
2019-01-18T12:18:05.798Z,7.30
2019-01-18T12:19:05.669Z,6.70
2019-01-18T12:20:58.333Z,9.90
2019-01-18T12:21:58.218Z,10.30
2019-01-18T12:23:50.890Z,8.80
2019-01-18T12:24:50.762Z,8.20
2019-01-18T12:26:43.416Z,9.50
2019-01-18T12:27:43.309Z,9.70
2019-01-18T12:29:35.984Z,10.60
2019-01-18T12:30:35.904Z,10.40
2019-01-18T12:32:28.897Z,7.70
2019-01-18T12:33:28.399Z,10.80
2019-01-18T12:35:21.097Z,10.60
2019-01-18T12:36:20.954Z,8.70
2019-01-18T12:38:14.025Z,10.00
2019-01-18T12:39:13.652Z,10.40
2019-01-18T12:41:07.303Z,9.40
2019-01-18T12:42:07.192Z,10.40
2019-01-18T12:43:59.861Z,12.60
2019-01-18T12:45:01.080Z,8.40
2019-01-18T12:46:52.438Z,11.60
2019-01-18T12:47:52.306Z,12.50
2019-01-18T12:49:44.985Z,10.20
2019-01-18T12:50:44.855Z,10.30
2019-01-18T12:52:37.555Z,10.40
2019-01-18T12:53:37.397Z,10.20
2019-01-18T12:55:30.097Z,10.40
2019-01-18T12:56:29.976Z,9.10
2019-01-18T12:58:23.140Z,12.00
2019-01-18T12:59:23.137Z,10.30
2019-01-18T13:01:15.673Z,10.30
2019-01-18T13:02:15.558Z,8.10
2019-01-18T13:04:08.388Z,12.20
2019-01-18T13:05:08.394Z,9.60
2019-01-18T13:07:00.783Z,10.80
2019-01-18T13:08:00.673Z,8.90
2019-01-18T13:09:53.318Z,12.10
2019-01-18T13:10:53.202Z,8.40
2019-01-18T13:12:45.886Z,10.10
2019-01-18T13:13:45.764Z,9.80
2019-01-18T13:15:38.508Z,9.70
2019-01-18T13:16:38.318Z,8.80
2019-01-18T13:18:31.001Z,8.50
2019-01-18T13:19:30.866Z,9.90
2019-01-18T13:21:23.526Z,9.40
2019-01-18T13:22:26.130Z,8.00
2019-01-18T13:24:16.092Z,10.10
2019-01-18T13:25:15.969Z,9.70
2019-01-18T13:27:08.639Z,10.30
2019-01-18T13:28:08.504Z,11.00
2019-01-18T13:30:01.168Z,10.80
2019-01-18T13:31:01.055Z,10.10
2019-01-18T13:32:53.728Z,10.90
2019-01-18T13:33:53.592Z,12.30
2019-01-18T13:35:46.258Z,12.20
2019-01-18T13:36:46.144Z,11.00
2019-01-18T13:38:38.824Z,12.40
2019-01-18T13:39:38.692Z,12.90
2019-01-18T13:41:31.348Z,10.80
2019-01-18T13:42:31.239Z,13.90
2019-01-18T13:44:23.917Z,14.80
2019-01-18T13:45:24.530Z,14.80
2019-01-18T13:47:18.369Z,11.90
2019-01-18T13:48:16.329Z,13.30
2019-01-18T13:50:08.989Z,12.90
2019-01-18T13:51:08.868Z,11.90
2019-01-18T13:53:01.548Z,11.70
2019-01-18T13:54:01.414Z,14.20
2019-01-18T13:55:54.092Z,11.50
2019-01-18T13:56:53.970Z,13.80
2019-01-18T13:58:46.647Z,11.10
2019-01-18T13:59:46.516Z,14.60
2019-01-18T14:01:39.184Z,13.60
2019-01-18T14:02:40.627Z,11.50
2019-01-18T14:04:31.730Z,11.90
2019-01-18T14:05:31.605Z,11.90
2019-01-18T14:07:24.273Z,10.20
2019-01-18T14:08:24.146Z,15.30
2019-01-18T14:10:16.811Z,14.60
2019-01-18T14:11:16.695Z,12.20
2019-01-18T14:13:09.374Z,14.90
2019-01-18T14:14:09.238Z,12.60
2019-01-18T14:16:01.897Z,14.60
2019-01-18T14:17:01.781Z,14.90
2019-01-18T14:18:54.461Z,12.60
2019-01-18T14:19:54.325Z,13.30
2019-01-18T14:21:47.006Z,14.90
2019-01-18T14:22:46.878Z,15.70
2019-01-18T14:24:39.535Z,15.00
2019-01-18T14:25:39.424Z,14.20
2019-01-18T14:27:32.099Z,14.30
2019-01-18T14:28:31.965Z,14.50
2019-01-18T14:30:24.627Z,14.90
2019-01-18T14:31:24.508Z,12.90
2019-01-18T14:33:17.378Z,14.70
2019-01-18T14:34:17.056Z,16.00
2019-01-18T14:36:09.718Z,14.80
2019-01-18T14:37:09.598Z,13.80
2019-01-18T14:39:02.282Z,15.60
2019-01-18T14:40:02.151Z,14.60
2019-01-18T14:41:54.827Z,14.30
2019-01-18T14:42:54.694Z,19.50
2019-01-18T14:44:47.358Z,18.10
2019-01-18T14:45:47.248Z,13.70
2019-01-18T14:47:40.019Z,16.20
2019-01-18T14:48:39.792Z,16.60
2019-01-18T14:50:32.447Z,15.40
2019-01-18T14:51:32.332Z,15.30
2019-01-18T14:53:25.015Z,16.80
2019-01-18T14:54:24.883Z,17.20
2019-01-18T14:56:17.573Z,14.60
2019-01-18T14:57:17.445Z,15.40
2019-01-18T14:59:10.105Z,13.90
2019-01-18T15:00:09.982Z,15.10
2019-01-18T15:02:02.646Z,15.20
2019-01-18T15:03:03.588Z,16.60
2019-01-18T15:04:55.173Z,15.90
2019-01-18T15:05:55.061Z,17.30
2019-01-18T15:07:47.738Z,15.00
2019-01-18T15:08:47.601Z,15.10
2019-01-18T15:10:40.268Z,13.40
2019-01-18T15:11:40.153Z,15.70
2019-01-18T15:13:32.991Z,16.00
2019-01-18T15:14:32.695Z,18.50
2019-01-18T15:16:25.356Z,16.90
2019-01-18T15:17:25.245Z,16.60
2019-01-18T15:19:17.929Z,15.60
2019-01-18T15:20:17.786Z,17.90
2019-01-18T15:22:10.471Z,17.20
2019-01-18T15:23:10.340Z,18.10
2019-01-18T15:25:03.006Z,19.00
2019-01-18T15:26:02.879Z,16.90
2019-01-18T15:27:55.561Z,20.90
2019-01-18T15:28:55.429Z,16.30
2019-01-18T15:30:48.092Z,16.10
2019-01-18T15:31:47.978Z,16.70
2019-01-18T15:33:40.654Z,17.10
2019-01-18T15:34:40.517Z,15.10
2019-01-18T15:36:33.192Z,14.60
2019-01-18T15:37:33.073Z,16.90
2019-01-18T15:39:25.748Z,14.70
2019-01-18T15:40:25.614Z,15.10
2019-01-18T15:42:18.287Z,13.80
2019-01-18T15:43:18.158Z,13.80
2019-01-18T15:45:10.815Z,13.40
2019-01-18T15:46:10.702Z,16.50
2019-01-18T15:48:03.381Z,13.80
2019-01-18T15:49:03.329Z,12.80
2019-01-18T15:50:55.907Z,12.20
2019-01-18T15:51:55.796Z,14.00
2019-01-18T15:53:48.488Z,13.30
2019-01-18T15:54:48.356Z,13.20
2019-01-18T15:56:41.003Z,12.40
2019-01-18T15:57:40.883Z,11.10
2019-01-18T15:59:33.569Z,12.10
2019-01-18T16:00:33.432Z,10.90
2019-01-18T16:02:26.092Z,12.20
2019-01-18T16:03:25.970Z,10.00
2019-01-18T16:05:18.645Z,10.90
2019-01-18T16:06:18.518Z,11.30
2019-01-18T16:08:11.194Z,13.30
2019-01-18T16:09:11.058Z,10.90
2019-01-18T16:11:03.750Z,11.00
2019-01-18T16:12:03.630Z,9.50
2019-01-18T16:13:56.308Z,11.00
2019-01-18T16:14:56.178Z,10.80
2019-01-18T16:16:48.852Z,11.50
2019-01-18T16:17:48.736Z,9.20
2019-01-18T16:19:41.420Z,11.50
2019-01-18T16:20:41.288Z,11.00
2019-01-18T16:22:33.949Z,12.40
2019-01-18T16:23:33.831Z,11.80
2019-01-18T16:25:26.502Z,9.90
2019-01-18T16:26:26.379Z,8.90
2019-01-18T16:28:19.046Z,8.60
2019-01-18T16:29:18.910Z,10.00
2019-01-18T16:31:11.567Z,9.50
2019-01-18T16:32:11.456Z,9.80
2019-01-18T16:34:04.141Z,9.60
2019-01-18T16:35:04.007Z,8.90
2019-01-18T16:36:57.169Z,10.40
2019-01-18T16:37:57.040Z,10.20
2019-01-18T16:39:49.718Z,10.40
2019-01-18T16:40:49.586Z,11.30
2019-01-18T16:42:42.248Z,9.10
2019-01-18T16:43:42.130Z,10.50
2019-01-18T16:45:34.809Z,10.30
2019-01-18T16:46:34.679Z,14.00
2019-01-18T16:48:27.355Z,14.40
2019-01-18T16:49:27.222Z,13.10
2019-01-18T16:51:19.880Z,11.00
2019-01-18T16:52:19.770Z,11.50
2019-01-18T16:54:12.463Z,10.50
2019-01-18T16:55:12.312Z,10.40
2019-01-18T16:57:04.971Z,11.30
2019-01-18T16:58:04.861Z,13.50
2019-01-18T16:59:57.533Z,11.60
2019-01-18T17:00:57.400Z,10.30
2019-01-18T17:02:50.058Z,11.30
2019-01-18T17:03:49.950Z,13.30
2019-01-18T17:05:42.623Z,10.90
2019-01-18T17:06:42.493Z,11.00
2019-01-18T17:08:35.155Z,9.90
2019-01-18T17:09:35.052Z,12.70
2019-01-18T17:11:27.721Z,8.90
2019-01-18T17:12:27.581Z,10.00
2019-01-18T17:14:20.267Z,11.00
2019-01-18T17:15:20.124Z,11.70
2019-01-18T17:17:12.843Z,9.50
2019-01-18T17:18:13.037Z,8.90
2019-01-18T17:20:05.353Z,11.70
2019-01-18T17:21:05.219Z,10.70
2019-01-18T17:22:57.882Z,10.10
2019-01-18T17:23:58.924Z,11.70
2019-01-18T17:25:50.445Z,9.30
2019-01-18T17:26:50.313Z,10.40
2019-01-18T17:28:42.976Z,12.40
2019-01-18T17:29:42.856Z,8.70
2019-01-18T17:31:35.532Z,10.60
2019-01-18T17:32:35.399Z,12.10
2019-01-18T17:34:28.077Z,12.70
2019-01-18T17:35:27.987Z,8.90
2019-01-18T17:37:20.607Z,10.50
2019-01-18T17:38:20.501Z,8.70
2019-01-18T17:40:13.174Z,8.90
2019-01-18T17:41:13.038Z,9.20
2019-01-18T17:43:05.712Z,8.30
2019-01-18T17:44:05.599Z,9.20
2019-01-18T17:45:58.267Z,11.40
2019-01-18T17:46:58.149Z,10.60
2019-01-18T17:48:50.812Z,10.80
2019-01-18T17:49:50.681Z,9.90
2019-01-18T17:51:43.346Z,10.20
2019-01-18T17:52:43.230Z,10.00
2019-01-18T17:54:35.901Z,10.80
2019-01-18T17:55:35.774Z,10.00
2019-01-18T17:57:28.440Z,12.40
2019-01-18T17:58:28.315Z,11.60
2019-01-18T18:00:20.996Z,11.50
2019-01-18T18:01:20.865Z,11.60
2019-01-18T18:03:13.534Z,13.10
2019-01-18T18:04:13.471Z,14.10
2019-01-18T18:06:06.087Z,12.20
2019-01-18T18:07:05.960Z,12.00
2019-01-18T18:08:58.631Z,12.80
2019-01-18T18:09:58.498Z,13.40
2019-01-18T18:11:51.160Z,13.40
2019-01-18T18:12:51.046Z,13.90
2019-01-18T18:14:43.719Z,16.20
2019-01-18T18:15:43.595Z,13.10
2019-01-18T18:17:36.252Z,12.80
2019-01-18T18:18:36.138Z,12.80
2019-01-18T18:20:28.812Z,14.80
2019-01-18T18:21:28.680Z,13.90
2019-01-18T18:23:21.353Z,15.20
2019-01-18T18:24:21.220Z,11.90
2019-01-18T18:26:13.888Z,15.00
2019-01-18T18:27:13.764Z,13.70
2019-01-18T18:29:06.443Z,12.60
2019-01-18T18:30:06.313Z,13.40
2019-01-18T18:31:58.975Z,12.90
2019-01-18T18:32:58.856Z,12.40
2019-01-18T18:34:52.281Z,13.60
2019-01-18T18:35:51.405Z,15.40
2019-01-18T18:37:44.068Z,15.40
2019-01-18T18:38:43.946Z,16.50
2019-01-18T18:40:36.625Z,18.00
2019-01-18T18:41:36.491Z,15.20
2019-01-18T18:43:29.167Z,16.40
2019-01-18T18:44:29.034Z,14.00
2019-01-18T18:46:21.697Z,14.80
2019-01-18T18:47:21.582Z,13.60
2019-01-18T18:49:14.250Z,14.90
2019-01-18T18:50:14.123Z,12.20
2019-01-18T18:52:06.782Z,12.50
2019-01-18T18:53:06.667Z,11.00
2019-01-18T18:54:59.340Z,13.60
2019-01-18T18:55:59.209Z,15.40
2019-01-18T18:57:51.879Z,14.50
2019-01-18T18:58:51.748Z,11.00
2019-01-18T19:00:44.399Z,13.40
2019-01-18T19:01:44.287Z,13.40
2019-01-18T19:03:36.963Z,12.90
2019-01-18T19:04:36.825Z,14.10
2019-01-18T19:06:29.491Z,14.20
2019-01-18T19:07:29.378Z,13.60
2019-01-18T19:09:22.050Z,13.00
2019-01-18T19:10:21.918Z,14.10
2019-01-18T19:12:14.586Z,13.10
2019-01-18T19:13:14.465Z,15.00
2019-01-18T19:15:07.139Z,15.20
2019-01-18T19:16:07.006Z,14.90
2019-01-18T19:17:59.682Z,13.50
2019-01-18T19:18:59.546Z,12.20
2019-01-18T19:20:52.206Z,13.90
2019-01-18T19:21:52.088Z,14.70
2019-01-18T19:23:44.760Z,12.90
2019-01-18T19:24:44.632Z,14.20
2019-01-18T19:26:37.286Z,14.70
2019-01-18T19:27:37.164Z,12.70
2019-01-18T19:29:29.837Z,14.40
2019-01-18T19:30:29.707Z,14.40
2019-01-18T19:32:22.388Z,14.80
2019-01-18T19:33:22.256Z,17.80
2019-01-18T19:35:14.906Z,15.70
2019-01-18T19:36:14.793Z,15.90
2019-01-18T19:38:07.464Z,12.90
2019-01-18T19:39:07.334Z,15.50
2019-01-18T19:40:59.992Z,12.80
2019-01-18T19:41:59.875Z,15.20
2019-01-18T19:43:52.545Z,14.00
2019-01-18T19:44:52.414Z,12.70
2019-01-18T19:46:45.070Z,16.80
2019-01-18T19:47:44.948Z,14.90
2019-01-18T19:49:37.624Z,14.10
2019-01-18T19:50:37.496Z,16.30
2019-01-18T19:52:30.170Z,16.70
2019-01-18T19:53:30.032Z,14.50
2019-01-18T19:55:22.707Z,13.30
2019-01-18T19:56:22.583Z,12.80
2019-01-18T19:58:15.279Z,13.80
2019-01-18T19:59:15.145Z,11.50
2019-01-18T20:01:07.805Z,11.60
2019-01-18T20:02:07.689Z,13.40
2019-01-18T20:04:00.354Z,12.30
2019-01-18T20:05:00.240Z,13.60
2019-01-18T20:06:52.877Z,15.50
2019-01-18T20:07:52.760Z,14.40
2019-01-18T20:09:45.439Z,13.30
2019-01-18T20:10:45.307Z,13.00
2019-01-18T20:12:37.981Z,15.20
2019-01-18T20:13:37.847Z,14.60
2019-01-18T20:15:31.383Z,13.80
2019-01-18T20:16:30.382Z,13.20
2019-01-18T20:18:23.359Z,14.90
2019-01-18T20:19:22.947Z,13.40
2019-01-18T20:21:15.599Z,12.10
2019-01-18T20:22:15.596Z,14.90
2019-01-18T20:24:08.156Z,14.30
2019-01-18T20:25:08.017Z,16.00
2019-01-18T20:27:00.716Z,26.00
2019-01-18T20:28:00.599Z,23.00
2019-01-18T20:29:53.273Z,27.20
2019-01-18T20:30:53.142Z,26.10
2019-01-18T20:32:45.826Z,37.10
2019-01-18T20:33:45.687Z,30.90
2019-01-18T20:35:38.406Z,25.30
2019-01-18T20:36:38.226Z,16.30
2019-01-18T20:38:30.916Z,20.10
2019-01-18T20:39:30.786Z,19.10
2019-01-18T20:41:23.440Z,16.60
2019-01-18T20:42:23.327Z,13.30
2019-01-18T20:44:15.999Z,11.50
2019-01-18T20:45:15.879Z,13.60
2019-01-18T20:47:08.537Z,18.70
2019-01-18T20:48:08.428Z,12.70
2019-01-18T20:50:01.088Z,12.40
2019-01-18T20:51:00.955Z,13.90
2019-01-18T20:52:53.632Z,17.10
2019-01-18T20:53:53.495Z,17.30
2019-01-18T20:55:46.152Z,18.70
2019-01-18T20:56:46.031Z,18.50
2019-01-18T20:58:38.703Z,21.10
2019-01-18T20:59:38.574Z,21.40
2019-01-18T21:01:31.229Z,21.50
2019-01-18T21:02:31.111Z,20.60
2019-01-18T21:04:29.098Z,20.90
2019-01-18T21:05:23.660Z,23.50
2019-01-18T21:07:16.321Z,21.30
2019-01-18T21:08:16.197Z,22.30
2019-01-18T21:10:08.963Z,21.50
2019-01-18T21:11:08.895Z,24.80
2019-01-18T21:13:01.410Z,22.10
2019-01-18T21:14:01.895Z,22.00
2019-01-18T21:15:54.440Z,23.60
2019-01-18T21:16:54.321Z,25.30
2019-01-18T21:18:47.997Z,21.40
2019-01-18T21:19:47.868Z,27.80
2019-01-18T21:21:40.516Z,18.30
2019-01-18T21:22:40.400Z,19.50
2019-01-18T21:24:33.081Z,18.50
2019-01-18T21:25:32.947Z,20.80
2019-01-18T21:27:25.601Z,17.70
2019-01-18T21:28:25.503Z,20.40
2019-01-18T21:30:18.162Z,21.40
2019-01-18T21:31:18.046Z,19.90
2019-01-18T21:33:10.699Z,20.90
2019-01-18T21:34:10.577Z,18.70
2019-01-18T21:36:03.243Z,19.00
2019-01-18T21:37:03.124Z,19.80
2019-01-18T21:38:55.836Z,21.50
2019-01-18T21:39:55.721Z,20.50
2019-01-18T21:41:48.445Z,21.70
2019-01-18T21:42:48.270Z,20.80
2019-01-18T21:44:40.940Z,20.80
2019-01-18T21:45:40.812Z,19.40
2019-01-18T21:47:33.468Z,20.20
2019-01-18T21:48:33.360Z,21.30
2019-01-18T21:50:26.020Z,22.20
2019-01-18T21:51:25.915Z,21.20
2019-01-18T21:53:18.565Z,19.90
2019-01-18T21:54:18.429Z,18.30
2019-01-18T21:56:11.099Z,19.30
2019-01-18T21:57:11.337Z,18.30
2019-01-18T21:59:03.663Z,18.30
2019-01-18T22:00:03.530Z,21.70
2019-01-18T22:01:56.174Z,20.20
2019-01-18T22:02:56.065Z,21.40
2019-01-18T22:04:48.735Z,21.80
2019-01-18T22:05:48.599Z,20.30
2019-01-18T22:07:41.265Z,18.70
2019-01-18T22:08:41.145Z,19.80
2019-01-18T22:10:33.830Z,19.90
2019-01-18T22:11:33.779Z,20.30
2019-01-18T22:13:26.398Z,21.20
2019-01-18T22:14:26.251Z,19.90
2019-01-18T22:16:18.906Z,21.90
2019-01-18T22:17:18.792Z,21.70
2019-01-18T22:19:11.468Z,19.90
2019-01-18T22:20:11.329Z,22.50
2019-01-18T22:22:03.994Z,21.60
2019-01-18T22:23:03.874Z,20.70
2019-01-18T22:24:56.552Z,18.40
2019-01-18T22:25:56.468Z,20.60
2019-01-18T22:27:49.075Z,20.60
2019-01-18T22:28:48.975Z,19.50
2019-01-18T22:30:41.824Z,22.70
2019-01-18T22:31:41.695Z,21.90
2019-01-18T22:33:34.373Z,19.30
2019-01-18T22:34:34.246Z,20.90
2019-01-18T22:36:26.903Z,21.00
2019-01-18T22:37:26.791Z,23.30
2019-01-18T22:39:19.463Z,20.10
2019-01-18T22:40:19.327Z,20.00
2019-01-18T22:42:11.986Z,17.40
2019-01-18T22:43:11.869Z,19.60
2019-01-18T22:45:04.556Z,19.20
2019-01-18T22:46:04.408Z,20.20
2019-01-18T22:47:57.080Z,20.90
2019-01-18T22:48:56.955Z,21.00
2019-01-18T22:50:49.608Z,19.00
2019-01-18T22:51:49.494Z,19.10
2019-01-18T22:53:42.167Z,18.30
2019-01-18T22:54:42.034Z,19.30
2019-01-18T22:56:34.702Z,18.00
2019-01-18T22:57:34.583Z,17.60
2019-01-18T22:59:27.256Z,16.80
